Smithton, MO (65350)

8:12 AM CST on November 26, 2014 (GMT -0600)
Sedalia Memorial | Change Station
CLOSE
Current Station
Airport
Location: Sedalia,
Elevation: 909 ft
Nearby Weather Stations

Elev 909 ft 38.71 °N, 93.18 °W | Updated 19 minutes ago

Snow
Snow
35 °F
Feels Like 27 °F
N
12
Wind Variable Wind from SSW

Today
High -- | Low -- °F
--% Chance of Precip.
Yesterday
High -- | Low -- °F
Precip. -- in
7:06 AM 4:52 PM
Waxing Crescent, 20% visible
Pressure 29.98 in
Visibility 10.0 miles
Clouds Mostly Cloudy 4600 ft
Overcast 5500 ft
Windchill 27 °F
Dew Point 31 °F
Humidity 85%
Rainfall 0.04 in
Snow Depth Not available.
UV 0 out of 12
Pollen .30 out of 12
Air Quality Not available.
Flu Activity Not available.
METAR KDMO 261353Z AUTO 21010KT 10SM BKN046 OVC055 02/M01 A2995 RMK AO2 UPB24E38SNE24 SLP150 P0001 T00171006

More Conditions Fewer Conditions

Pressure 29.98 in
Visibility 10.0 miles
Clouds Mostly Cloudy 4600 ft
Overcast 5500 ft
Windchill 27 °F
Dew Point 31 °F
Humidity 85%
Rainfall 0.04 in
Snow Depth Not available.
UV 0 out of 12
Pollen .30 out of 12
Air Quality Not available.
Flu Activity Not available.
METAR KDMO 261353Z AUTO 21010KT 10SM BKN046 OVC055 02/M01 A2995 RMK AO2 UPB24E38SNE24 SLP150 P0001 T00171006

More Conditions Fewer Conditions

10-Day Weather Forecast

Almanac

Astronomy

Nov. 26, 2014 Rise Set
Actual Time
Civil Twilight
Nautical Twilight
Astronomical Twilight
Moon
Length of Visible Light
Length of Day
Tomorrow will be .
, % of the Moon is Illuminated

Today's Extremes

State Highs State Lows

Community

WunderPhotos

Upload Photos

1,773,751 photos uploaded!

WunderBlogs® & News

Nearby

Air Quality

  Air Quality AQ Index Pollutant
Not available.

Snow Depth

Station Depth Elevation

Earthquake Activity

City Distance Mag. Time & Date
Minimum magnitude displayed is 2.5.

Coastal Water Temperatures

Place Temperature

Nearby Weather Stations